Claremont, NH (03743)

14:55 EDT le 02 septembre 2014 (GMT -0400)
Airport Hill | Change Station
CLOSE
Current Station
Stations météorologiques personnelles
Location: Claremont, NH
Altitude: 545 ft
Stations météo à proximité

Alt. 545 ft 43.37 °N, 72.37 °W | Updated 19 seconds ago

Couvert
Couvert
75.3 ° F
Paraît 75 ° F
N
0.0
Vent Variable Vent de NE
Gusts 0.0 mph

Aujourd'hui
Haut(e) -- | Bas -- ° F
--% Risque de précip.
Hier
Haut(e) -- | Bas -- ° F
Precip. -- pouce
6:14 AM 7:22 PM
Premier quartier, 54% visible
Pression 29.85 pouce
Visibilité 10.0 Miles terrestres
Nuages Couvert 11000 ft
indice de chaleur 75 ° F
Point de rosée 72 ° F
Humidité 90%
Précipitations 0.01 pouce
Profondeur de la couche neigeuse Non disponible.
UV 2 sur 12
Pollen 6.00 sur 12
Qualité de l'air Non disponible.
Flu Activity Non disponible.
METAR KVSF 021754Z AUTO 13003KT 10SM OVC110 25/22 A2985 RMK AO2 LTG DSNT SE RAE1655 SLP107 P0000 60002 T02500217 10250 20178 58015

More Conditions Fewer Conditions

Pression 29.85 pouce
Visibilité 10.0 Miles terrestres
Nuages Couvert 11000 ft
indice de chaleur 75 ° F
Point de rosée 72 ° F
Humidité 90%
Précipitations 0.01 pouce
Profondeur de la couche neigeuse Non disponible.
UV 2 sur 12
Pollen 6.00 sur 12
Qualité de l'air Non disponible.
Flu Activity Non disponible.
METAR KVSF 021754Z AUTO 13003KT 10SM OVC110 25/22 A2985 RMK AO2 LTG DSNT SE RAE1655 SLP107 P0000 60002 T02500217 10250 20178 58015

More Conditions Fewer Conditions

10-Day Weather Forecast

Almanac

Astronomie

Sep. 02, 2014 Lever Coucher
Temps réel 06:14 EDT 19:22 EDT
Crépuscule civil 05:45 EDT 19:52 EDT
Crépuscule nautique 05:09 EDT 20:27 EDT
Crépuscule astronomique 04:32 EDT 21:03 EDT
Lune 14:08 EDT Pas de coucher de lune
Durée de lumière visible 14h 07m
Longueur du jour
13h 08m
Tomorrow will be 2m 51s shorter.
Premier quartier, 54% of the Moon is Illuminated
Aujourd'hui
Premier quartier
Sep 8
Pleine lune
Sep 15
Dernier quartier
Sep 24
Nouveau
Oct 1
Premier quartier

Extrêmes aujourd'hui

State Highs State Lows

Community

WunderPhotos

Upload Photos

1,749,743 Photos téléchargées !

WunderBlogs® & News

By Dr. Jeff Masters
Director of Meteorology, Weather Underground
By Kari Strenfel
Meteorologist, Weather Underground
By Christopher C. Burt
Weather Historian, Weather Underground
September 2, 2014
September 2, 2014
September 2, 2014

Nearby

Qualité de l'air

  Qualité de l'air Indice de la qualité de l'air Polluant
mardi Bon
PM2.5
mardi Bon
OZONE
mercredi Bon
PM2.5
mercredi Bon
OZONE

Épaisseur de neige

Station Depth Altitude
Pas de nouvelles chutes de neige

Activité sismique

Ville Distance Mag. Time & Date
No recent earthquake activity has been reported nearby.
Minimum magnitude displayed is 2.5.

Températures des eaux côtières

Lieu Température
Aucun rapport de station

Stations météo à proximité